Time;durP1;ratioP1;P1;durP2;ratioP2;P2;SDS_P1;SDS_P2;PMS_P1;PMS_P2;Temp;Humidity;BMP_temperature;BMP_pressure;BME280_temperature;BME280_humidity;BME280_pressure;Samples;Min_cycle;Max_cycle;Signal;HPM_P1;HPM_P2
2024/02/05 00:00:28;;;;;;;;;7.33;5.00;;;;;11.33;70.28;102813.50;2020303;28;2754458;-76
2024/02/05 00:01:40;;;;;;;;;9.00;8.00;;;;;11.33;70.17;102814.38;2036416;28;2751339;-76
2024/02/05 00:02:50;;;;;;;;;8.00;4.00;;;;;11.33;70.32;102803.84;2019133;28;2744042;-76
2024/02/05 00:04:01;;;;;;;;;5.67;4.33;;;;;11.34;70.21;102809.97;2023495;28;2745074;-76
2024/02/05 00:05:12;;;;;;;;;8.33;6.67;;;;;11.34;70.23;102805.59;2032796;28;2752460;-76
2024/02/05 00:06:23;;;;;;;;;8.67;7.33;;;;;11.34;70.20;102805.59;2029360;28;2746098;-76
2024/02/05 00:07:36;;;;;;;;;7.40;5.80;;;;;11.35;70.32;102806.47;2052154;28;2750638;-76
2024/02/05 00:08:46;;;;;;;;;8.33;5.00;;;;;11.34;70.13;102805.59;2023910;28;2748174;-76
2024/02/05 00:09:58;;;;;;;;;6.25;6.25;;;;;11.35;70.31;102801.22;2044162;28;2744043;-76
2024/02/05 00:11:09;;;;;;;;;4.00;4.00;;;;;11.34;70.14;102805.59;2005036;28;2744058;-76
2024/02/05 00:12:20;;;;;;;;;5.00;5.00;;;;;11.34;70.20;102808.22;2052702;27;2746133;-76
2024/02/05 00:13:33;;;;;;;;;7.83;6.50;;;;;11.34;69.95;102808.22;2031226;27;2741987;-76
2024/02/05 00:14:44;;;;;;;;;7.00;5.00;;;;;11.34;70.08;102804.72;1994863;28;3457552;-76
2024/02/05 00:15:54;;;;;;;;;9.67;6.33;;;;;11.34;70.05;102800.34;2035529;28;3488836;-76
2024/02/05 00:17:05;;;;;;;;;6.33;5.33;;;;;11.36;70.13;102808.22;2038981;28;3459635;-76
2024/02/05 00:18:16;;;;;;;;;6.67;5.00;;;;;11.35;70.24;102801.22;2037503;27;2746213;-76
2024/02/05 00:19:27;;;;;;;;;4.33;4.33;;;;;11.35;70.11;102798.59;2032435;28;2750277;-76
2024/02/05 00:20:38;;;;;;;;;12.00;7.00;;;;;11.35;70.12;102794.19;2033832;28;3497157;-76
2024/02/05 00:21:49;;;;;;;;;6.33;5.00;;;;;11.36;69.92;102800.31;2037646;28;2742545;-76
2024/02/05 00:23:00;;;;;;;;;4.00;4.00;;;;;11.35;69.95;102794.19;2039963;27;3464859;-76
2024/02/05 00:24:11;;;;;;;;;8.67;8.67;;;;;11.35;70.04;102796.84;2033760;28;2746120;-76
2024/02/05 00:25:23;;;;;;;;;5.00;5.00;;;;;11.36;69.90;102797.69;2032167;28;2742000;-76
2024/02/05 00:26:33;;;;;;;;;6.67;5.33;;;;;11.36;70.02;102789.78;2019607;28;2748264;-76
2024/02/05 00:27:45;;;;;;;;;12.33;6.67;;;;;11.34;70.02;102789.81;2051553;28;1844044;-76
2024/02/05 00:28:58;;;;;;;;;7.50;7.17;;;;;11.35;69.95;102790.69;2030604;28;2749234;-76
2024/02/05 00:30:10;;;;;;;;;7.67;5.00;;;;;11.36;69.83;102797.69;2003215;27;2752433;-76
2024/02/05 00:31:20;;;;;;;;;11.33;6.67;;;;;11.35;70.10;102785.41;2025148;27;3492970;-76
2024/02/05 00:32:31;;;;;;;;;5.33;4.67;;;;;11.35;69.79;102786.31;2045892;27;2742318;-76
2024/02/05 00:33:41;;;;;;;;;8.00;7.67;;;;;11.35;70.06;102785.41;2001635;28;2748271;-76
2024/02/05 00:34:52;;;;;;;;;10.00;5.33;;;;;11.35;69.94;102781.03;2042713;28;3497106;-76
2024/02/05 00:36:05;;;;;;;;;7.00;7.00;;;;;11.35;69.99;102786.31;2031917;28;2748196;-76
2024/02/05 00:37:15;;;;;;;;;12.00;8.00;;;;;11.35;69.87;102780.16;2024231;28;3488781;-76
2024/02/05 00:38:26;;;;;;;;;4.67;3.67;;;;;11.36;69.74;102779.25;2050483;27;2757080;-76
2024/02/05 00:39:37;;;;;;;;;8.00;4.00;;;;;11.34;70.00;102788.91;2049416;27;2749311;-76
2024/02/05 00:40:48;;;;;;;;;5.67;4.00;;;;;11.35;69.86;102788.06;2055876;27;2737849;-76
2024/02/05 00:41:58;;;;;;;;;14.67;8.00;;;;;11.34;69.49;102788.91;1994253;28;3500278;-76
2024/02/05 00:43:09;;;;;;;;;6.67;4.67;;;;;11.33;69.69;102785.41;2040504;28;2748260;-76
2024/02/05 00:44:20;;;;;;;;;6.67;3.67;;;;;11.31;69.79;102781.91;2052210;27;2738850;-76
2024/02/05 00:45:31;;;;;;;;;5.67;5.67;;;;;11.32;69.68;102790.69;2017729;27;1832031;-76
2024/02/05 00:46:42;;;;;;;;;7.67;5.00;;;;;11.32;69.69;102790.69;2010491;27;2748237;-76
2024/02/05 00:47:52;;;;;;;;;7.67;6.00;;;;;11.32;69.84;102786.31;2036676;28;2747270;-76
2024/02/05 00:49:04;;;;;;;;;4.33;4.33;;;;;11.32;69.42;102790.69;2040931;27;2749336;-76
2024/02/05 00:50:15;;;;;;;;;13.33;7.00;;;;;11.34;69.67;102786.28;2026669;28;3496057;-76
2024/02/05 00:51:26;;;;;;;;;15.33;5.33;;;;;11.33;69.79;102787.19;2059834;27;1838885;-76
2024/02/05 00:52:39;;;;;;;;;7.17;5.33;;;;;11.33;69.58;102787.19;2037079;27;2750262;-76
2024/02/05 00:53:50;;;;;;;;;12.33;8.67;;;;;11.32;69.52;102782.78;2002433;27;3499244;-76
2024/02/05 00:55:01;;;;;;;;;8.33;7.00;;;;;11.32;69.80;102790.69;2042636;28;3472179;-76
2024/02/05 00:56:13;;;;;;;;;5.20;4.20;;;;;11.32;69.85;102785.41;2054007;27;2734699;-76
2024/02/05 00:57:29;;;;;;;;;8.00;8.00;;;;;11.32;69.86;102782.78;2007262;27;3458566;-76
2024/02/05 00:58:40;;;;;;;;;8.00;7.00;;;;;11.32;69.84;102791.56;2027887;28;2746114;-76
2024/02/05 00:59:51;;;;;;;;;4.67;4.00;;;;;11.32;69.51;102794.22;2038425;27;2744142;-76
2024/02/05 01:01:02;;;;;;;;;7.00;3.33;;;;;11.33;69.85;102800.34;2051605;27;2754471;-76
2024/02/05 01:02:15;;;;;;;;;6.17;3.00;;;;;11.32;69.46;102793.31;2037038;27;2736712;-76
2024/02/05 01:03:25;;;;;;;;;4.67;4.33;;;;;11.31;69.71;102789.81;2009615;27;2744374;-76
2024/02/05 01:04:37;;;;;;;;;9.33;7.00;;;;;11.31;69.60;102799.50;2052488;27;3474222;-76
2024/02/05 01:05:48;;;;;;;;;5.33;4.67;;;;;11.31;69.68;102799.50;2034849;27;3456979;-76
2024/02/05 01:06:59;;;;;;;;;6.00;4.00;;;;;11.31;69.64;102795.06;2045071;27;2754439;-76
2024/02/05 01:08:11;;;;;;;;;4.75;4.75;;;;;11.31;69.64;102794.22;2040556;28;1836873;-76
2024/02/05 01:09:21;;;;;;;;;6.67;4.00;;;;;11.31;69.64;102788.97;2026394;27;2752340;-76
2024/02/05 01:10:32;;;;;;;;;8.00;7.33;;;;;11.30;69.58;102792.47;2045672;27;3473163;-76
2024/02/05 01:11:43;;;;;;;;;11.67;4.00;;;;;11.31;69.80;102788.97;2044747;27;2770141;-76
2024/02/05 01:12:54;;;;;;;;;4.00;3.67;;;;;11.30;69.77;102782.81;2061784;27;2727435;-76
2024/02/05 01:14:05;;;;;;;;;5.33;5.00;;;;;11.30;69.62;102782.81;2004375;27;2747136;-76
2024/02/05 01:15:16;;;;;;;;;7.33;4.00;;;;;11.30;69.68;102787.19;2048452;27;2744508;-76
2024/02/05 01:16:27;;;;;;;;;7.50;4.25;;;;;11.31;69.67;102784.53;2052148;27;2749262;-76
2024/02/05 01:17:38;;;;;;;;;7.67;5.00;;;;;11.30;69.58;102787.19;2032426;27;3465905;-76
2024/02/05 01:18:49;;;;;;;;;8.00;5.00;;;;;11.30;69.49;102774.91;2042258;28;2760769;-76
2024/02/05 01:20:00;;;;;;;;;8.33;5.00;;;;;11.30;69.54;102776.66;2041798;28;2744037;-76
2024/02/05 01:21:10;;;;;;;;;4.33;4.33;;;;;11.30;69.43;102776.66;2040019;27;2748209;-76
2024/02/05 01:22:21;;;;;;;;;5.33;4.00;;;;;11.30;69.75;102776.66;2041240;27;2741994;-76
2024/02/05 01:23:34;;;;;;;;;7.00;4.33;;;;;11.30;69.52;102780.19;2043374;27;2744066;-76
2024/02/05 01:24:47;;;;;;;;;5.50;3.17;;;;;11.30;69.73;102776.66;2061798;27;2740226;-76
2024/02/05 01:25:58;;;;;;;;;6.00;4.67;;;;;11.29;69.70;102777.53;2008346;27;2739921;-76
2024/02/05 01:27:09;;;;;;;;;9.33;7.33;;;;;11.30;69.50;102776.66;2044879;27;3481494;-76
2024/02/05 01:28:19;;;;;;;;;8.33;4.33;;;;;11.29;69.44;102780.16;2038396;28;2758626;-76
2024/02/05 01:29:30;;;;;;;;;7.67;5.00;;;;;11.29;69.39;102775.78;2039278;27;2749239;-76
2024/02/05 01:30:43;;;;;;;;;6.00;4.33;;;;;11.30;69.52;102774.03;2032730;28;3464160;-76
2024/02/05 01:31:53;;;;;;;;;5.67;5.00;;;;;11.29;69.62;102769.63;2014943;28;2744039;-76
2024/02/05 01:33:04;;;;;;;;;4.67;4.00;;;;;11.29;69.43;102769.63;2034408;28;2750316;-76
2024/02/05 01:34:15;;;;;;;;;6.00;4.00;;;;;11.30;69.33;102771.41;2033464;28;2754466;-76
2024/02/05 01:35:26;;;;;;;;;6.00;3.00;;;;;11.30;69.31;102774.03;2035429;28;2754986;-76
2024/02/05 01:36:37;;;;;;;;;6.33;4.33;;;;;11.30;69.49;102768.75;2039485;27;2754441;-76
2024/02/05 01:37:48;;;;;;;;;8.00;3.67;;;;;11.30;69.63;102766.13;2041557;27;2743016;-76
2024/02/05 01:38:59;;;;;;;;;3.67;3.00;;;;;11.30;69.45;102763.50;2041577;28;2748213;-76
2024/02/05 01:40:10;;;;;;;;;9.00;5.67;;;;;11.29;69.32;102772.25;2041874;27;2753485;-76
2024/02/05 01:41:23;;;;;;;;;4.00;3.00;;;;;11.28;69.55;102758.25;2029149;27;2748333;-76
2024/02/05 01:42:34;;;;;;;;;9.00;7.67;;;;;11.29;69.29;102764.38;2032573;27;3474194;-76
2024/02/05 01:43:45;;;;;;;;;5.33;5.33;;;;;11.29;69.35;102764.38;2044895;27;2748170;-76
2024/02/05 01:44:56;;;;;;;;;5.00;4.00;;;;;11.29;69.39;102761.72;2039825;28;2749274;-76
2024/02/05 01:46:06;;;;;;;;;6.33;6.00;;;;;11.30;69.56;102766.13;2041473;28;2748242;-76
2024/02/05 01:47:19;;;;;;;;;4.75;4.75;;;;;11.29;69.54;102759.09;2055768;27;2754430;-76
2024/02/05 01:48:33;;;;;;;;;9.00;3.00;;;;;11.30;69.09;102766.13;2033153;27;2754521;-76
2024/02/05 01:49:45;;;;;;;;;3.00;3.00;;;;;11.29;69.27;102765.25;2026874;28;2754955;-76
2024/02/05 01:50:59;;;;;;;;;7.83;4.50;;;;;11.29;69.10;102749.44;2043744;28;2736728;-76
2024/02/05 01:52:11;;;;;;;;;8.00;5.67;;;;;11.29;69.32;102753.84;1998057;27;2745146;-76
2024/02/05 01:53:22;;;;;;;;;5.00;3.00;;;;;11.29;69.12;102757.34;2027011;27;2754943;-76
2024/02/05 01:54:38;;;;;;;;;8.17;6.17;;;;;11.28;69.00;102755.63;2043916;28;2752347;-76
2024/02/05 01:55:51;;;;;;;;;9.67;4.67;;;;;11.29;68.82;102761.72;2019585;28;3476293;-76
2024/02/05 01:57:04;;;;;;;;;7.67;5.33;;;;;11.29;68.97;102764.38;2022658;28;2751362;-76
2024/02/05 01:58:15;;;;;;;;;6.00;4.00;;;;;11.29;68.99;102765.25;2026840;27;2754427;-76
2024/02/05 01:59:27;;;;;;;;;4.33;3.67;;;;;11.29;68.89;102753.84;2042302;27;3467948;-76
2024/02/05 02:00:41;;;;;;;;;1.50;1.50;;;;;11.30;68.84;102756.47;2053065;27;2739845;-76
2024/02/05 02:01:54;;;;;;;;;3.00;3.00;;;;;11.29;68.81;102761.72;2032499;27;2754520;-76
2024/02/05 02:03:06;;;;;;;;;4.00;3.00;;;;;11.30;68.79;102750.34;2011492;27;2755007;-76
2024/02/05 02:04:16;;;;;;;;;4.67;3.33;;;;;11.29;68.86;102753.84;2026624;28;2750765;-76
2024/02/05 02:05:28;;;;;;;;;8.33;4.00;;;;;11.30;68.84;102758.22;2036709;27;2749300;-76
2024/02/05 02:06:40;;;;;;;;;8.33;5.33;;;;;11.30;68.98;102755.59;2033510;27;2754508;-76
2024/02/05 02:07:53;;;;;;;;;6.50;4.67;;;;;11.29;68.71;102759.97;2044091;28;2754459;-76
2024/02/05 02:09:10;;;;;;;;;5.67;3.50;;;;;11.30;68.74;102750.34;2021821;28;2746089;-76
2024/02/05 02:10:21;;;;;;;;;3.33;3.00;;;;;11.30;68.74;102753.84;2003237;27;2752431;-76
2024/02/05 02:11:32;;;;;;;;;7.75;4.25;;;;;11.30;68.82;102755.59;2042846;28;2739877;-76
2024/02/05 02:12:46;;;;;;;;;3.17;2.67;;;;;11.30;68.83;102755.59;2028248;27;2744034;-76
2024/02/05 02:13:59;;;;;;;;;5.00;3.00;;;;;11.29;68.85;102749.44;2035337;27;2754439;-76
2024/02/05 02:15:11;;;;;;;;;3.00;3.00;;;;;11.30;68.76;102755.59;2011002;27;2750280;-76
2024/02/05 02:16:28;;;;;;;;;3.50;3.50;;;;;11.28;68.55;102746.84;2060734;27;2746157;-76
2024/02/05 02:17:44;;;;;;;;;9.67;4.67;;;;;11.28;68.88;102760.00;2008821;27;3482952;-76
2024/02/05 02:19:01;;;;;;;;;5.67;4.00;;;;;11.25;68.72;102748.59;2059728;27;2737847;-76
2024/02/05 02:20:12;;;;;;;;;3.00;2.00;;;;;11.27;68.76;102750.34;1996873;27;2752372;-76
2024/02/05 02:21:26;;;;;;;;;1.83;1.00;;;;;11.29;68.71;102761.72;2057100;27;2729444;-76
2024/02/05 02:22:46;;;;;;;;;4.33;3.00;;;;;11.28;68.44;102750.34;2011739;27;2752336;-76
2024/02/05 02:24:01;;;;;;;;;4.50;2.50;;;;;11.28;68.69;102752.09;2052782;27;2745049;-76
2024/02/05 02:25:14;;;;;;;;;4.00;2.67;;;;;11.29;68.88;102744.19;2028741;28;2744043;-76
2024/02/05 02:26:24;;;;;;;;;4.67;4.67;;;;;11.28;68.42;102755.63;2003343;27;2748600;-76
2024/02/05 02:27:40;;;;;;;;;5.00;3.00;;;;;11.28;68.77;102752.97;2035694;28;2754439;-76
2024/02/05 02:28:50;;;;;;;;;3.33;3.33;;;;;11.27;68.63;102748.59;2019753;28;2754450;-76
2024/02/05 02:30:02;;;;;;;;;5.33;3.00;;;;;11.28;68.78;102752.09;2053502;27;2735710;-76
2024/02/05 02:31:18;;;;;;;;;3.67;3.67;;;;;11.28;68.65;102749.47;2028143;27;2752349;-76
2024/02/05 02:32:55;;;;;;;;;4.33;3.00;;;;;11.28;68.64;102749.47;2026141;28;3461767;-76
2024/02/05 02:34:19;;;;;;;;;9.00;4.00;;;;;11.27;68.61;102747.69;2032573;27;2750268;-76
2024/02/05 02:35:36;;;;;;;;;3.67;3.67;;;;;11.30;68.59;102747.69;2035248;27;2752386;-76
2024/02/05 02:36:55;;;;;;;;;4.33;4.00;;;;;11.29;68.55;102751.19;2032554;27;3470027;-76
2024/02/05 02:38:14;;;;;;;;;3.67;3.00;;;;;11.29;68.61;102743.31;2027100;27;2754464;-76
2024/02/05 02:39:33;;;;;;;;;5.50;3.00;;;;;11.30;68.80;102753.84;2052751;28;2754449;-76
2024/02/05 02:40:55;;;;;;;;;4.00;2.67;;;;;11.29;68.52;102741.56;2037127;27;2737849;-76
2024/02/05 02:42:06;;;;;;;;;4.33;3.33;;;;;11.31;68.50;102746.84;2010042;27;3470421;-76
2024/02/05 02:43:21;;;;;;;;;3.67;3.67;;;;;11.31;68.38;102746.84;2060868;27;2746098;-76
2024/02/05 02:44:36;;;;;;;;;6.33;3.33;;;;;11.30;68.47;102756.47;2035269;27;2748190;-76
2024/02/05 02:45:49;;;;;;;;;5.67;4.00;;;;;11.31;68.49;102750.31;2010215;27;2755015;-76
2024/02/05 02:47:01;;;;;;;;;4.00;3.00;;;;;11.31;68.45;102752.94;2018050;28;2748207;-76
2024/02/05 02:48:14;;;;;;;;;7.50;4.17;;;;;11.31;68.68;102746.84;2049109;28;2735713;-76
2024/02/05 02:49:27;;;;;;;;;5.33;4.67;;;;;11.31;68.26;102744.19;2030163;28;2754451;-76
2024/02/05 02:50:38;;;;;;;;;4.00;3.00;;;;;11.30;68.37;102747.69;2009398;27;2752336;-76
2024/02/05 02:51:49;;;;;;;;;3.00;2.00;;;;;11.30;68.21;102743.31;2059147;27;2752368;-76
2024/02/05 02:52:59;;;;;;;;;5.00;5.00;;;;;11.30;68.22;102747.69;2032783;27;2758675;-76
2024/02/05 02:54:10;;;;;;;;;3.00;2.00;;;;;11.29;68.57;102748.56;2043042;28;2752367;-76
2024/02/05 02:55:22;;;;;;;;;2.75;2.75;;;;;11.30;68.57;102750.34;2050674;27;2728427;-76
2024/02/05 02:56:34;;;;;;;;;4.33;3.00;;;;;11.29;68.53;102749.44;2030208;27;2754455;-76
2024/02/05 02:57:44;;;;;;;;;8.67;4.00;;;;;11.30;68.63;102750.34;2033772;27;2769117;-76
2024/02/05 02:58:56;;;;;;;;;4.33;2.00;;;;;11.29;68.41;102744.19;2050779;27;2738835;-76
2024/02/05 03:00:09;;;;;;;;;3.83;2.67;;;;;11.30;68.29;102751.22;2028382;27;2737772;-76
2024/02/05 03:01:20;;;;;;;;;4.33;3.00;;;;;11.30;68.33;102739.81;2003197;27;2754481;-76
2024/02/05 03:02:31;;;;;;;;;4.00;2.33;;;;;11.30;68.65;102751.22;2043577;28;2753399;-76
2024/02/05 03:03:41;;;;;;;;;6.67;4.00;;;;;11.29;68.42;102744.19;2030244;28;2752408;-76
2024/02/05 03:04:54;;;;;;;;;4.00;2.00;;;;;11.30;68.59;102745.94;2052527;27;2740266;-76
2024/02/05 03:06:08;;;;;;;;;4.50;2.67;;;;;11.30;68.27;102738.06;2038387;27;2727379;-76
2024/02/05 03:07:21;;;;;;;;;4.17;3.00;;;;;11.30;68.40;102743.31;2037254;27;2732600;-76
2024/02/05 03:08:32;;;;;;;;;3.00;3.00;;;;;11.29;68.49;102743.31;2025928;28;2750280;-76
2024/02/05 03:09:42;;;;;;;;;7.00;4.00;;;;;11.29;68.16;102738.03;2027219;27;2739885;-76
2024/02/05 03:10:53;;;;;;;;;5.00;3.33;;;;;11.28;68.44;102734.56;2049028;28;2746131;-76
2024/02/05 03:12:04;;;;;;;;;4.00;3.00;;;;;11.29;68.29;102740.66;2004284;28;2744491;-76
2024/02/05 03:13:17;;;;;;;;;5.20;3.20;;;;;11.28;68.50;102736.31;2050231;28;2741936;-76
2024/02/05 03:14:30;;;;;;;;;3.83;2.83;;;;;11.29;68.27;102738.91;2052625;27;2734991;-76
2024/02/05 03:15:44;;;;;;;;;6.33;3.67;;;;;11.29;68.31;102736.28;2025412;27;2740923;-76
2024/02/05 03:16:57;;;;;;;;;2.00;2.00;;;;;11.29;68.23;102735.41;2015562;28;2734645;-76
2024/02/05 03:18:10;;;;;;;;;3.50;3.17;;;;;11.29;68.29;102741.56;2030451;27;2724242;-76
2024/02/05 03:19:24;;;;;;;;;4.83;2.50;;;;;11.29;68.42;102732.78;2038165;27;2731543;-76
2024/02/05 03:20:39;;;;;;;;;5.50;2.67;;;;;11.30;68.37;102731.91;2036731;27;2737822;-76
2024/02/05 03:21:52;;;;;;;;;3.17;2.00;;;;;11.30;68.07;102734.53;2038228;27;2733595;-76
2024/02/05 03:23:07;;;;;;;;;5.00;2.83;;;;;11.30;68.21;102734.53;2036506;27;2743015;-76
2024/02/05 03:24:20;;;;;;;;;4.00;4.00;;;;;11.29;68.22;102730.13;2028848;27;2752344;-76
2024/02/05 03:25:30;;;;;;;;;8.33;4.67;;;;;11.29;67.94;102731.03;1999403;27;2748687;-76
2024/02/05 03:26:41;;;;;;;;;4.33;2.33;;;;;11.30;67.94;102737.16;2043531;28;2732601;-76
2024/02/05 03:27:58;;;;;;;;;3.67;1.50;;;;;11.29;68.34;102724.88;2052143;27;2746118;-76
2024/02/05 03:29:11;;;;;;;;;3.50;3.33;;;;;11.30;68.19;102729.28;2037301;27;2737797;-76
2024/02/05 03:30:30;;;;;;;;;4.33;1.83;;;;;11.31;68.49;102731.03;2036822;27;2736731;-76
2024/02/05 03:31:44;;;;;;;;;4.50;3.00;;;;;11.29;68.35;102724.88;2029209;27;2737825;-76
2024/02/05 03:32:58;;;;;;;;;2.17;2.17;;;;;11.29;67.66;102735.41;2026922;28;2735682;-76
2024/02/05 03:34:11;;;;;;;;;5.00;2.17;;;;;11.28;68.12;102729.28;2023106;28;2735691;-76
2024/02/05 03:35:25;;;;;;;;;3.17;3.17;;;;;11.28;68.23;102734.56;2028400;27;2746135;-76
2024/02/05 03:36:39;;;;;;;;;4.83;2.00;;;;;11.28;68.11;102721.41;2030097;28;2732577;-76
2024/02/05 03:37:53;;;;;;;;;3.33;2.83;;;;;11.29;68.09;102723.13;2028960;28;2748166;-76
2024/02/05 03:39:06;;;;;;;;;3.83;2.83;;;;;11.30;67.90;102718.75;2020551;28;2746150;-76
2024/02/05 03:40:23;;;;;;;;;2.67;2.50;;;;;11.30;68.02;102726.63;2023128;27;2738249;-76
2024/02/05 03:41:36;;;;;;;;;2.83;2.50;;;;;11.29;68.27;102725.75;2051205;28;2734668;-76
2024/02/05 03:42:50;;;;;;;;;7.50;3.50;;;;;11.30;68.32;102718.75;2029875;27;2758590;-76
2024/02/05 03:44:04;;;;;;;;;6.00;3.00;;;;;11.29;68.06;102725.75;2038426;27;2744386;-76
2024/02/05 03:45:18;;;;;;;;;3.00;1.83;;;;;11.29;68.15;102725.75;2026373;28;2743003;-76
2024/02/05 03:46:31;;;;;;;;;3.00;2.50;;;;;11.28;68.10;102725.78;2028300;28;2739892;-76
2024/02/05 03:47:41;;;;;;;;;7.33;3.33;;;;;11.28;67.88;102726.66;2001552;27;2758695;-76
2024/02/05 03:48:54;;;;;;;;;4.00;4.00;;;;;11.29;67.93;102730.13;2042142;28;2748233;-76
2024/02/05 03:50:10;;;;;;;;;2.17;1.83;;;;;11.29;68.07;102730.13;2053932;27;2741935;-76
2024/02/05 03:51:23;;;;;;;;;4.67;3.33;;;;;11.29;67.79;102732.78;2032888;27;2735702;-76
2024/02/05 03:52:37;;;;;;;;;5.33;3.00;;;;;11.28;67.88;102725.78;2028340;28;2754515;-76
2024/02/05 03:53:48;;;;;;;;;3.33;3.00;;;;;11.26;67.98;102725.75;2002803;28;2752340;-76
2024/02/05 03:55:02;;;;;;;;;4.00;4.00;;;;;11.26;68.08;102728.38;2053410;27;2737757;-76
2024/02/05 03:56:16;;;;;;;;;4.00;2.33;;;;;11.25;67.90;102732.81;2027792;28;2735723;-76
2024/02/05 03:57:30;;;;;;;;;4.00;3.33;;;;;11.25;67.80;102724.91;2026735;27;2750286;-76
2024/02/05 03:58:40;;;;;;;;;2.33;2.33;;;;;11.23;68.08;102724.03;2003922;27;2746136;-76
2024/02/05 03:59:54;;;;;;;;;3.33;2.00;;;;;11.24;67.72;102725.78;2051806;28;2732553;-76
2024/02/05 04:01:07;;;;;;;;;2.17;2.17;;;;;11.24;67.97;102727.53;2055837;27;2732579;-76
2024/02/05 04:02:21;;;;;;;;;4.33;2.67;;;;;11.24;67.61;102724.91;2027989;28;2734660;-76
2024/02/05 04:03:32;;;;;;;;;6.67;3.00;;;;;11.23;67.78;102728.44;2002248;28;2754480;-76
2024/02/05 04:04:43;;;;;;;;;5.67;3.67;;;;;11.23;67.82;102729.31;2051272;27;2735768;-76
2024/02/05 04:05:57;;;;;;;;;4.83;2.00;;;;;11.24;67.88;102725.78;2060676;27;2738822;-76
2024/02/05 04:07:10;;;;;;;;;5.17;2.17;;;;;11.22;67.86;102724.91;2037258;27;2736724;-76
2024/02/05 04:08:26;;;;;;;;;2.67;2.67;;;;;11.22;67.89;102732.81;2037356;27;2735718;-76
2024/02/05 04:09:39;;;;;;;;;6.33;2.00;;;;;11.23;67.78;102728.44;2036514;27;2745068;-76
2024/02/05 04:10:53;;;;;;;;;3.00;1.50;;;;;11.24;67.83;102730.16;2032264;27;2734637;-76
2024/02/05 04:12:07;;;;;;;;;3.50;3.00;;;;;11.23;67.85;102728.44;2031444;27;2744467;-76
2024/02/05 04:13:20;;;;;;;;;2.67;2.67;;;;;11.23;67.83;102728.44;2028254;27;2737800;-76
2024/02/05 04:14:33;;;;;;;;;2.67;2.50;;;;;11.23;67.66;102725.78;2028747;27;2735685;-76
2024/02/05 04:15:46;;;;;;;;;5.00;3.83;;;;;11.23;67.79;102724.03;2029906;27;2734652;-76
2024/02/05 04:16:59;;;;;;;;;6.00;2.00;;;;;11.24;67.88;102719.63;2029265;28;2742981;-76
2024/02/05 04:18:13;;;;;;;;;3.17;3.17;;;;;11.24;67.76;102725.78;2020516;28;2744013;-76
2024/02/05 04:19:26;;;;;;;;;4.33;2.50;;;;;11.25;68.00;102716.13;2022369;28;2741963;-76
2024/02/05 04:20:39;;;;;;;;;4.50;2.33;;;;;11.22;67.88;102714.38;2031272;27;2728395;-76
2024/02/05 04:21:52;;;;;;;;;6.17;3.33;;;;;11.24;67.63;102712.63;2034058;27;2739859;-76
2024/02/05 04:23:05;;;;;;;;;4.00;2.00;;;;;11.24;67.77;102717.88;2037661;27;2741956;-76
2024/02/05 04:24:19;;;;;;;;;2.00;2.00;;;;;11.24;67.70;102706.47;2038171;27;2736724;-76
2024/02/05 04:25:32;;;;;;;;;3.00;1.67;;;;;11.25;67.59;102718.75;2033944;27;2733608;-76
2024/02/05 04:26:45;;;;;;;;;4.00;4.00;;;;;11.23;67.49;102716.16;2030544;27;2741944;-76
2024/02/05 04:27:59;;;;;;;;;3.83;3.33;;;;;11.23;67.42;102716.16;2029472;28;2746094;-76
2024/02/05 04:29:20;;;;;;;;;7.33;3.00;;;;;11.22;67.24;102713.50;1995385;28;2753472;-76
2024/02/05 04:30:32;;;;;;;;;3.33;3.00;;;;;11.22;67.54;102713.50;2025240;28;2750631;-76
2024/02/05 04:31:49;;;;;;;;;3.17;3.17;;;;;11.22;67.13;102717.00;2049465;27;2731544;-76
2024/02/05 04:33:02;;;;;;;;;3.50;1.67;;;;;11.22;67.34;102717.00;2030736;28;2731533;-76
2024/02/05 04:34:15;;;;;;;;;2.50;2.50;;;;;11.22;67.48;102717.00;2030870;28;2730490;-76
2024/02/05 04:35:28;;;;;;;;;2.00;2.00;;;;;11.21;67.12;102715.25;2028095;28;2736736;-76
2024/02/05 04:36:39;;;;;;;;;1.33;1.33;;;;;11.22;67.43;102716.13;2002723;28;2739872;-76
2024/02/05 04:37:50;;;;;;;;;0.67;0.67;;;;;11.22;67.44;102716.13;2053440;28;2727357;-76
2024/02/05 04:39:05;;;;;;;;;6.83;3.00;;;;;11.21;67.22;102712.63;2053748;28;2739848;-76
2024/02/05 04:40:18;;;;;;;;;4.00;2.33;;;;;11.21;67.17;102723.16;2033380;27;2733591;-76
2024/02/05 04:41:31;;;;;;;;;2.83;2.33;;;;;11.20;67.55;102713.53;2036227;27;2732545;-76
2024/02/05 04:42:44;;;;;;;;;3.50;2.33;;;;;11.21;67.18;102720.53;2028368;28;2738827;-76
2024/02/05 04:43:55;;;;;;;;;3.00;3.00;;;;;11.21;67.50;102723.16;2002919;27;2750290;-76
2024/02/05 04:45:06;;;;;;;;;3.33;2.00;;;;;11.21;67.31;102724.94;2052308;27;2732565;-76
2024/02/05 04:46:20;;;;;;;;;3.17;2.33;;;;;11.21;67.34;102723.16;2062118;27;2732596;-76
2024/02/05 04:47:30;;;;;;;;;4.00;3.00;;;;;11.21;66.93;102730.19;2035939;27;2750270;-76
2024/02/05 04:48:41;;;;;;;;;2.00;2.00;;;;;11.21;67.28;102728.41;2060780;27;2744035;-76
2024/02/05 04:49:54;;;;;;;;;4.17;2.67;;;;;11.21;66.97;102722.31;2060915;27;2738243;-76
2024/02/05 04:51:11;;;;;;;;;4.67;2.00;;;;;11.20;67.22;102718.78;2010199;27;2744029;-76
2024/02/05 04:52:25;;;;;;;;;3.00;3.00;;;;;11.20;67.31;102731.94;2060034;27;2737901;-76
2024/02/05 04:53:35;;;;;;;;;6.33;4.00;;;;;11.21;66.99;102727.56;2003537;28;2754548;-76
2024/02/05 04:54:46;;;;;;;;;5.00;3.67;;;;;11.19;66.86;102727.56;2044213;27;2754590;-76
2024/02/05 04:55:57;;;;;;;;;5.33;1.67;;;;;11.19;66.66;102730.19;2040561;28;3452667;-76
2024/02/05 04:57:08;;;;;;;;;5.00;3.67;;;;;11.18;66.62;102725.81;2042253;27;2754498;-76
2024/02/05 04:58:20;;;;;;;;;2.75;2.25;;;;;11.17;67.03;102728.44;2058886;27;2730475;-76
2024/02/05 04:59:30;;;;;;;;;2.67;2.67;;;;;11.17;67.00;102729.31;2020611;28;2744031;-76
2024/02/05 05:00:41;;;;;;;;;3.67;3.00;;;;;11.16;67.17;102722.28;2052128;28;2739853;-76
2024/02/05 05:01:54;;;;;;;;;3.00;3.00;;;;;11.16;66.80;102724.91;2045411;28;2736819;-76
2024/02/05 05:03:08;;;;;;;;;3.33;3.33;;;;;11.16;66.37;102722.28;2021152;28;2754503;-76
2024/02/05 05:04:22;;;;;;;;;3.17;3.00;;;;;11.14;66.45;102722.31;2022081;28;2750269;-76
2024/02/05 05:05:35;;;;;;;;;2.00;2.00;;;;;11.13;66.64;102723.19;2028674;27;2734660;-76
2024/02/05 05:06:48;;;;;;;;;2.50;2.50;;;;;11.12;66.83;102726.69;2037960;27;2746128;-76
2024/02/05 05:08:02;;;;;;;;;8.00;4.83;;;;;11.12;66.71;102728.44;2037913;27;2750300;-76
2024/02/05 05:09:15;;;;;;;;;4.17;1.00;;;;;11.09;66.86;102720.56;2031894;27;2741960;-76
2024/02/05 05:10:25;;;;;;;;;4.00;3.67;;;;;11.07;66.70;102715.31;2003151;27;2754573;-76
2024/02/05 05:11:36;;;;;;;;;5.67;3.00;;;;;11.07;66.77;102715.31;2051213;27;2748174;-76
2024/02/05 05:12:47;;;;;;;;;2.33;2.33;;;;;11.07;66.51;102724.94;2045036;27;2750284;-76
2024/02/05 05:14:00;;;;;;;;;2.60;1.80;;;;;11.07;66.55;102717.06;2052340;28;2739863;-76
2024/02/05 05:15:17;;;;;;;;;3.00;3.00;;;;;11.08;67.02;102718.81;2026807;27;2754433;-76
2024/02/05 05:16:30;;;;;;;;;2.67;2.33;;;;;11.08;66.62;102718.81;2061792;27;2752351;-76
2024/02/05 05:17:44;;;;;;;;;2.83;2.17;;;;;11.08;66.72;102717.06;2038246;27;2745088;-76
2024/02/05 05:19:03;;;;;;;;;3.67;3.67;;;;;11.08;66.92;102713.56;2038654;27;2744022;-76
2024/02/05 05:20:14;;;;;;;;;8.33;4.00;;;;;11.08;66.88;102709.19;2012138;27;2762779;-76
2024/02/05 05:21:25;;;;;;;;;3.00;3.00;;;;;11.08;66.80;102711.81;2043625;27;3470071;-76
2024/02/05 05:22:36;;;;;;;;;4.67;3.00;;;;;11.07;66.81;102706.53;2049361;27;2756553;-76
2024/02/05 05:23:47;;;;;;;;;7.00;4.00;;;;;11.07;66.16;102711.78;2060612;27;2744017;-76
2024/02/05 05:24:57;;;;;;;;;6.00;3.00;;;;;11.05;66.73;102714.44;2012077;27;2754420;-76
2024/02/05 05:26:08;;;;;;;;;6.00;5.00;;;;;11.00;65.76;102706.56;2059962;27;2748661;-76
2024/02/05 05:27:21;;;;;;;;;7.67;6.33;;;;;10.97;66.33;102706.56;2060408;27;2740890;-76
2024/02/05 05:28:38;;;;;;;;;4.00;2.83;;;;;10.96;66.57;102710.09;2029245;28;2741940;-76
2024/02/05 05:29:48;;;;;;;;;3.33;3.33;;;;;10.95;66.23;102700.44;2028619;27;2754423;-76